Upton, New York
Current Conditions -  °F | °C
As of 1:56 PM on Friday 24 Oct 2014 (Local Time) from KHWV Reporting Station
Overcast Overcast  
Wind Chill: 55°   Ceiling: 2900
Heat Index: 55°   Visibility: 10mi
Dew Point: 44°   Wind: 17mph
Humidity: 67%   Direction: 330°NNW
Pressure: 29.75"   Gusts: NA
Location:  40.87°N, 72.89°W
Report Text: KHWV 241756Z AUTO 33015KT 10SM OVC029 13/07 A2975 RMK AO2 SLP075 60005 T01280067 10128 20100 55007 TSNO
Loading
Personal Weather Stations






























Interactive Weather Map
Tropical Storm Tracking
New forecast layout! Learn more

10-Day Weather Forecast

Advertisements
Track Severe Weather on mobile